createdAt,value
2017-01-16T00:00:37.852Z,0
2017-01-16T00:01:38.252Z,0
2017-01-16T00:02:38.656Z,0
2017-01-16T00:03:38.240Z,0
2017-01-16T00:04:38.652Z,0
2017-01-16T00:05:37.832Z,0
2017-01-16T00:06:38.232Z,0
2017-01-16T00:07:37.824Z,0
2017-01-16T00:08:38.640Z,0
2017-01-16T00:09:38.224Z,0
2017-01-16T00:10:38.635Z,0
2017-01-16T00:11:38.618Z,0
2017-01-16T00:12:38.208Z,0
2017-01-16T00:13:38.204Z,0
2017-01-16T00:14:38.192Z,0
2017-01-16T00:15:37.780Z,0
2017-01-16T00:16:38.192Z,0
2017-01-16T00:17:38.184Z,0
2017-01-16T00:18:38.596Z,0
2017-01-16T00:19:38.588Z,0
2017-01-16T00:20:37.772Z,0
2017-01-16T00:21:38.568Z,0
2017-01-16T00:22:38.580Z,0
2017-01-16T00:23:38.164Z,0
2017-01-16T00:24:38.148Z,0
2017-01-16T00:25:38.156Z,0
2017-01-16T00:26:38.144Z,0
2017-01-16T00:27:37.740Z,0
2017-01-16T00:28:37.725Z,0
2017-01-16T00:29:37.728Z,0
2017-01-16T00:30:37.724Z,0
2017-01-16T00:31:38.128Z,0
2017-01-16T00:32:38.128Z,0
2017-01-16T00:33:38.528Z,0
2017-01-16T00:34:38.124Z,0
2017-01-16T00:35:38.520Z,0
2017-01-16T00:36:38.100Z,0
2017-01-16T00:37:38.516Z,0
2017-01-16T00:38:38.100Z,0
2017-01-16T00:39:38.092Z,0
2017-01-16T00:40:37.676Z,0
2017-01-16T00:41:38.084Z,0
2017-01-16T00:42:38.095Z,0
2017-01-16T00:43:38.080Z,0
2017-01-16T00:44:37.660Z,0
2017-01-16T00:45:38.064Z,0
2017-01-16T00:46:38.060Z,0
2017-01-16T00:47:38.476Z,0
2017-01-16T00:48:38.052Z,0
2017-01-16T00:49:38.032Z,0
2017-01-16T00:50:38.040Z,0
2017-01-16T00:51:38.044Z,0
2017-01-16T00:52:37.620Z,0
2017-01-16T00:53:38.444Z,0
2017-01-16T00:54:38.028Z,0
2017-01-16T00:55:38.040Z,0
2017-01-16T00:56:38.020Z,0
2017-01-16T00:57:38.008Z,0
2017-01-16T00:58:38.004Z,0
2017-01-16T00:59:38.008Z,0
2017-01-16T01:00:38.412Z,0
2017-01-16T01:01:37.581Z,0
2017-01-16T01:02:38.404Z,0
2017-01-16T01:03:37.825Z,0
2017-01-16T01:04:37.568Z,0
2017-01-16T01:05:37.972Z,0
2017-01-16T01:06:37.972Z,0
2017-01-16T01:07:37.977Z,0
2017-01-16T01:08:37.556Z,0
2017-01-16T01:09:37.968Z,0
2017-01-16T01:10:37.960Z,0
2017-01-16T01:11:38.365Z,0
2017-01-16T01:12:37.144Z,0
2017-01-16T01:13:37.533Z,0
2017-01-16T01:14:37.936Z,0
2017-01-16T01:15:37.932Z,0
2017-01-16T01:16:37.932Z,0
2017-01-16T01:17:37.920Z,0
2017-01-16T01:18:37.656Z,0
2017-01-16T01:19:38.336Z,0
2017-01-16T01:20:37.500Z,0
2017-01-16T01:21:37.912Z,0
2017-01-16T01:22:37.904Z,0
2017-01-16T01:23:37.892Z,0
2017-01-16T01:24:37.901Z,0
2017-01-16T01:25:37.880Z,0
2017-01-16T01:26:37.880Z,0
2017-01-16T01:27:37.888Z,0
2017-01-16T01:28:37.884Z,0
2017-01-16T01:29:37.472Z,0
2017-01-16T01:30:37.861Z,0
2017-01-16T01:31:38.288Z,0
2017-01-16T01:32:37.869Z,0
2017-01-16T01:33:37.441Z,0
2017-01-16T01:34:38.264Z,0
2017-01-16T01:35:37.849Z,0
2017-01-16T01:36:38.256Z,0
2017-01-16T01:37:37.865Z,0
2017-01-16T01:38:38.245Z,0
2017-01-16T01:39:37.836Z,0
2017-01-16T01:40:37.833Z,0
2017-01-16T01:41:37.408Z,0
2017-01-16T01:42:37.817Z,0
2017-01-16T01:43:37.821Z,0
2017-01-16T01:44:37.397Z,0
2017-01-16T01:45:38.213Z,0
2017-01-16T01:46:37.385Z,0
2017-01-16T01:47:38.213Z,0
2017-01-16T01:48:37.793Z,0
2017-01-16T01:49:37.793Z,0
2017-01-16T01:50:37.785Z,0
2017-01-16T01:51:37.365Z,0
2017-01-16T01:52:37.777Z,0
2017-01-16T01:53:37.777Z,0
2017-01-16T01:54:38.178Z,0
2017-01-16T01:55:38.173Z,0
2017-01-16T01:56:37.753Z,0
2017-01-16T01:57:37.337Z,0
2017-01-16T01:58:37.749Z,0
2017-01-16T01:59:38.157Z,0
2017-01-16T02:00:38.169Z,0
2017-01-16T02:01:37.741Z,0
2017-01-16T02:02:37.733Z,0
2017-01-16T02:03:37.309Z,0
2017-01-16T02:04:37.725Z,0
2017-01-16T02:05:37.722Z,0
2017-01-16T02:06:37.705Z,0
2017-01-16T02:07:37.709Z,0
2017-01-16T02:08:37.709Z,0
2017-01-16T02:09:37.286Z,0
2017-01-16T02:10:37.281Z,0
2017-01-16T02:11:37.682Z,0
2017-01-16T02:12:37.681Z,0
2017-01-16T02:13:37.677Z,0
2017-01-16T02:14:36.853Z,0
2017-01-16T02:15:37.262Z,0
2017-01-16T02:16:38.077Z,0
2017-01-16T02:17:38.073Z,0
2017-01-16T02:18:37.670Z,0
2017-01-16T02:19:37.237Z,0
2017-01-16T02:20:37.647Z,0
2017-01-16T02:21:37.238Z,0
2017-01-16T02:22:37.641Z,0
2017-01-16T02:23:37.229Z,0
2017-01-16T02:24:37.633Z,0
2017-01-16T02:25:37.621Z,0
2017-01-16T02:26:38.022Z,0
2017-01-16T02:27:37.625Z,0
2017-01-16T02:28:37.617Z,0
2017-01-16T02:29:38.021Z,0
2017-01-16T02:30:37.643Z,0
2017-01-16T02:31:37.601Z,0
2017-01-16T02:32:36.774Z,0
2017-01-16T02:33:37.589Z,0
2017-01-16T02:34:38.001Z,0
2017-01-16T02:35:37.582Z,0
2017-01-16T02:36:37.990Z,0
2017-01-16T02:37:36.751Z,0
2017-01-16T02:38:37.573Z,0
2017-01-16T02:39:37.590Z,0
2017-01-16T02:40:36.737Z,4
2017-01-16T02:41:37.558Z,0
2017-01-16T02:42:37.546Z,0
2017-01-16T02:43:37.549Z,0
2017-01-16T02:44:37.954Z,0
2017-01-16T02:45:37.533Z,0
2017-01-16T02:46:37.942Z,0
2017-01-16T02:47:37.522Z,0
2017-01-16T02:48:36.702Z,0
2017-01-16T02:49:37.108Z,0
2017-01-16T02:50:37.522Z,0
2017-01-16T02:51:37.926Z,0
2017-01-16T02:52:37.522Z,0
2017-01-16T02:53:37.910Z,0
2017-01-16T02:54:37.534Z,0
2017-01-16T02:55:36.670Z,0
2017-01-16T02:56:37.482Z,0
2017-01-16T02:57:37.482Z,0
2017-01-16T02:58:37.470Z,0
2017-01-16T02:59:37.482Z,0
2017-01-16T03:00:37.882Z,0
2017-01-16T03:01:37.466Z,0
2017-01-16T03:02:37.463Z,0
2017-01-16T03:03:37.463Z,0
2017-01-16T03:04:37.038Z,0
2017-01-16T03:05:37.866Z,0
2017-01-16T03:06:37.031Z,0
2017-01-16T03:07:37.447Z,0
2017-01-16T03:08:37.839Z,0
2017-01-16T03:09:37.431Z,0
2017-01-16T03:10:37.015Z,0
2017-01-16T03:11:36.603Z,0
2017-01-16T03:12:37.407Z,0
2017-01-16T03:13:37.407Z,0
2017-01-16T03:14:37.963Z,0
2017-01-16T03:15:37.394Z,0
2017-01-16T03:16:37.811Z,0
2017-01-16T03:17:37.396Z,0
2017-01-16T03:18:37.391Z,0
2017-01-16T03:19:37.003Z,0
2017-01-16T03:20:37.795Z,0
2017-01-16T03:21:37.787Z,0
2017-01-16T03:22:37.383Z,0
2017-01-16T03:23:37.367Z,0
2017-01-16T03:24:37.359Z,0
2017-01-16T03:25:37.407Z,0
2017-01-16T03:26:36.951Z,0
2017-01-16T03:27:37.379Z,0
2017-01-16T03:28:37.760Z,0
2017-01-16T03:29:37.752Z,0
2017-01-16T03:30:37.744Z,0
2017-01-16T03:31:37.744Z,0
2017-01-16T03:32:37.732Z,0
2017-01-16T03:33:36.916Z,0
2017-01-16T03:34:37.736Z,0
2017-01-16T03:35:37.724Z,0
2017-01-16T03:36:37.308Z,0
2017-01-16T03:37:37.300Z,0
2017-01-16T03:38:37.708Z,0
2017-01-16T03:39:37.289Z,0
2017-01-16T03:40:37.292Z,0
2017-01-16T03:41:37.289Z,0
2017-01-16T03:42:37.720Z,0
2017-01-16T03:43:36.860Z,0
2017-01-16T03:44:36.856Z,0
2017-01-16T03:45:37.684Z,0
2017-01-16T03:46:37.680Z,0
2017-01-16T03:47:36.853Z,0
2017-01-16T03:48:37.249Z,0
2017-01-16T03:49:37.261Z,0
2017-01-16T03:50:37.249Z,0
2017-01-16T03:51:36.829Z,0
2017-01-16T03:52:37.236Z,0
2017-01-16T03:53:37.233Z,0
2017-01-16T03:54:37.229Z,0
2017-01-16T03:55:37.213Z,0
2017-01-16T03:56:37.221Z,0
2017-01-16T03:57:37.213Z,0
2017-01-16T03:58:37.213Z,0
2017-01-16T03:59:37.205Z,0
2017-01-16T04:00:37.197Z,4
2017-01-16T04:01:37.605Z,4
2017-01-16T04:02:36.777Z,0
2017-01-16T04:03:37.182Z,0
2017-01-16T04:04:37.178Z,0
2017-01-16T04:05:37.177Z,0
2017-01-16T04:06:36.754Z,0
2017-01-16T04:07:37.609Z,0
2017-01-16T04:08:36.750Z,0
2017-01-16T04:09:37.582Z,0
2017-01-16T04:10:37.158Z,0
2017-01-16T04:11:37.154Z,0
2017-01-16T04:12:37.554Z,0
2017-01-16T04:13:37.142Z,0
2017-01-16T04:14:36.726Z,0
2017-01-16T04:15:37.122Z,0
2017-01-16T04:16:37.134Z,0
2017-01-16T04:17:37.538Z,0
2017-01-16T04:18:36.718Z,0
2017-01-16T04:19:37.554Z,0
2017-01-16T04:20:36.698Z,0
2017-01-16T04:21:37.099Z,0
2017-01-16T04:22:36.686Z,0
2017-01-16T04:23:37.098Z,0
2017-01-16T04:24:37.086Z,0
2017-01-16T04:25:36.683Z,0
2017-01-16T04:26:36.267Z,0
2017-01-16T04:27:37.087Z,0
2017-01-16T04:28:37.491Z,0
2017-01-16T04:29:37.071Z,0
2017-01-16T04:30:36.655Z,0
2017-01-16T04:31:37.067Z,0
2017-01-16T04:32:37.051Z,0
2017-01-16T04:33:37.051Z,0
2017-01-16T04:34:37.047Z,0
2017-01-16T04:35:37.043Z,0
2017-01-16T04:36:37.047Z,0
2017-01-16T04:37:37.439Z,0
2017-01-16T04:38:36.611Z,0
2017-01-16T04:39:36.611Z,0
2017-01-16T04:40:37.019Z,4
2017-01-16T04:41:37.428Z,0
2017-01-16T04:42:37.015Z,0
2017-01-16T04:43:37.420Z,0
2017-01-16T04:44:37.008Z,0
2017-01-16T04:45:37.004Z,0
2017-01-16T04:46:37.403Z,0
2017-01-16T04:47:36.579Z,0
2017-01-16T04:48:36.983Z,0
2017-01-16T04:49:36.984Z,0
2017-01-16T04:50:37.388Z,0
2017-01-16T04:51:36.984Z,0
2017-01-16T04:52:36.563Z,0
2017-01-16T04:53:36.559Z,0
2017-01-16T04:54:36.968Z,0
2017-01-16T04:55:37.368Z,0
2017-01-16T04:56:36.956Z,0
2017-01-16T04:57:36.948Z,0
2017-01-16T04:58:36.940Z,0
2017-01-16T04:59:36.944Z,0
2017-01-16T05:00:36.936Z,0
2017-01-16T05:01:36.932Z,0
2017-01-16T05:02:36.512Z,0
2017-01-16T05:03:37.328Z,0
2017-01-16T05:04:36.912Z,0
2017-01-16T05:05:37.320Z,0
2017-01-16T05:06:36.897Z,4
2017-01-16T05:07:36.500Z,4
2017-01-16T05:08:36.488Z,0
2017-01-16T05:09:37.308Z,0
2017-01-16T05:10:36.897Z,0
2017-01-16T05:11:37.293Z,0
2017-01-16T05:12:36.460Z,0
2017-01-16T05:13:37.284Z,0
2017-01-16T05:14:36.869Z,0
2017-01-16T05:15:36.861Z,0
2017-01-16T05:16:37.309Z,0
2017-01-16T05:17:36.449Z,0
2017-01-16T05:18:37.277Z,0
2017-01-16T05:19:36.845Z,0
2017-01-16T05:20:37.253Z,4
2017-01-16T05:21:36.845Z,4
2017-01-16T05:22:36.833Z,0
2017-01-16T05:23:36.833Z,0
2017-01-16T05:24:36.829Z,0
2017-01-16T05:25:36.857Z,0
2017-01-16T05:26:37.229Z,0
2017-01-16T05:27:36.813Z,0
2017-01-16T05:28:36.801Z,0
2017-01-16T05:29:36.833Z,0
2017-01-16T05:30:36.805Z,0
2017-01-16T05:31:36.385Z,0
2017-01-16T05:32:36.373Z,0
2017-01-16T05:33:36.373Z,0
2017-01-16T05:34:36.785Z,0
2017-01-16T05:35:37.186Z,0
2017-01-16T05:36:36.362Z,0
2017-01-16T05:37:36.773Z,0
2017-01-16T05:38:36.766Z,0
2017-01-16T05:39:37.170Z,0
2017-01-16T05:40:36.754Z,0
2017-01-16T05:41:36.754Z,0
2017-01-16T05:42:37.166Z,0
2017-01-16T05:43:36.734Z,0
2017-01-16T05:44:37.146Z,0
2017-01-16T05:45:36.730Z,0
2017-01-16T05:46:36.322Z,0
2017-01-16T05:47:37.143Z,0
2017-01-16T05:48:35.898Z,0
2017-01-16T05:49:36.722Z,0
2017-01-16T05:50:36.706Z,0
2017-01-16T05:51:36.706Z,0
2017-01-16T05:52:36.714Z,0
2017-01-16T05:53:36.286Z,0
2017-01-16T05:54:36.286Z,0
2017-01-16T05:55:37.098Z,0
2017-01-16T05:56:36.691Z,0
2017-01-16T05:57:37.091Z,0
2017-01-16T05:58:36.262Z,0
2017-01-16T05:59:37.114Z,4
2017-01-16T06:00:36.262Z,4
2017-01-16T06:01:36.250Z,0
2017-01-16T06:02:36.670Z,0
2017-01-16T06:03:36.246Z,0
2017-01-16T06:04:36.648Z,0
2017-01-16T06:05:37.051Z,0
2017-01-16T06:06:37.050Z,0
2017-01-16T06:07:36.227Z,0
2017-01-16T06:08:37.039Z,0
2017-01-16T06:09:36.623Z,0
2017-01-16T06:10:36.623Z,0
2017-01-16T06:11:36.619Z,0
2017-01-16T06:12:36.615Z,0
2017-01-16T06:13:36.610Z,0
2017-01-16T06:14:36.195Z,0
2017-01-16T06:15:36.595Z,0
2017-01-16T06:16:36.187Z,0
2017-01-16T06:17:37.003Z,0
2017-01-16T06:18:36.591Z,0
2017-01-16T06:19:36.171Z,0
2017-01-16T06:20:36.575Z,0
2017-01-16T06:21:36.991Z,0
2017-01-16T06:22:36.159Z,0
2017-01-16T06:23:36.571Z,0
2017-01-16T06:24:36.563Z,0
2017-01-16T06:25:36.143Z,0
2017-01-16T06:26:36.575Z,0
2017-01-16T06:27:36.956Z,0
2017-01-16T06:28:36.539Z,0
2017-01-16T06:29:36.123Z,0
2017-01-16T06:30:36.116Z,0
2017-01-16T06:31:36.532Z,0
2017-01-16T06:32:36.107Z,0
2017-01-16T06:33:36.512Z,0
2017-01-16T06:34:36.516Z,0
2017-01-16T06:35:36.103Z,0
2017-01-16T06:36:36.924Z,0
2017-01-16T06:37:36.908Z,0
2017-01-16T06:38:36.498Z,4
2017-01-16T06:39:36.488Z,4
2017-01-16T06:40:36.488Z,4
2017-01-16T06:41:36.484Z,4
2017-01-16T06:42:36.076Z,0
2017-01-16T06:43:36.480Z,4
2017-01-16T06:44:36.503Z,8
2017-01-16T06:45:36.048Z,8
2017-01-16T06:46:36.060Z,8
2017-01-16T06:47:36.040Z,8
2017-01-16T06:48:35.628Z,8
2017-01-16T06:49:36.860Z,12
2017-01-16T06:50:36.860Z,16
2017-01-16T06:51:36.852Z,20
2017-01-16T06:52:36.020Z,20
2017-01-16T06:53:36.433Z,24
2017-01-16T06:54:36.016Z,28
2017-01-16T06:55:36.828Z,32
2017-01-16T06:56:36.824Z,36
2017-01-16T06:57:36.421Z,40
2017-01-16T06:58:36.404Z,44
2017-01-16T06:59:36.400Z,48
2017-01-16T07:00:36.396Z,52
2017-01-16T07:01:35.972Z,56
2017-01-16T07:02:36.388Z,64
2017-01-16T07:03:36.384Z,68
2017-01-16T07:04:36.380Z,76
2017-01-16T07:05:36.788Z,80
2017-01-16T07:06:36.372Z,88
2017-01-16T07:07:35.949Z,96
2017-01-16T07:08:36.768Z,100
2017-01-16T07:09:36.769Z,104
2017-01-16T07:10:36.764Z,104
2017-01-16T07:11:36.352Z,108
2017-01-16T07:12:35.936Z,108
2017-01-16T07:13:36.748Z,104
2017-01-16T07:14:35.928Z,104
2017-01-16T07:15:35.916Z,108
2017-01-16T07:16:36.732Z,112
2017-01-16T07:17:36.316Z,116
2017-01-16T07:18:36.731Z,124
2017-01-16T07:19:36.336Z,128
2017-01-16T07:20:36.336Z,128
2017-01-16T07:21:36.711Z,136
2017-01-16T07:22:36.303Z,144
2017-01-16T07:23:36.703Z,152
2017-01-16T07:24:36.290Z,160
2017-01-16T07:25:36.287Z,160
2017-01-16T07:26:36.287Z,160
2017-01-16T07:27:36.683Z,156
2017-01-16T07:28:36.707Z,156
2017-01-16T07:29:36.259Z,156
2017-01-16T07:30:35.847Z,156
2017-01-16T07:31:36.251Z,152
2017-01-16T07:32:36.651Z,152
2017-01-16T07:33:36.243Z,156
2017-01-16T07:34:35.839Z,152
2017-01-16T07:35:36.238Z,160
2017-01-16T07:36:36.239Z,164
2017-01-16T07:37:36.639Z,176
2017-01-16T07:38:36.211Z,192
2017-01-16T07:39:36.631Z,204
2017-01-16T07:40:36.211Z,216
2017-01-16T07:41:36.215Z,232
2017-01-16T07:42:35.795Z,248
2017-01-16T07:43:35.795Z,264
2017-01-16T07:44:36.203Z,288
2017-01-16T07:45:36.200Z,316
2017-01-16T07:46:35.775Z,356
2017-01-16T07:47:35.767Z,396
2017-01-16T07:48:36.587Z,448
2017-01-16T07:49:36.583Z,500
2017-01-16T07:50:36.171Z,556
2017-01-16T07:51:35.755Z,600
2017-01-16T07:52:36.155Z,628
2017-01-16T07:53:36.567Z,644
2017-01-16T07:54:36.148Z,660
2017-01-16T07:55:36.555Z,692
2017-01-16T07:56:35.319Z,736
2017-01-16T07:57:36.139Z,800
2017-01-16T07:58:36.135Z,844
2017-01-16T07:59:36.543Z,928
2017-01-16T08:00:36.539Z,1052
2017-01-16T08:01:36.119Z,1108
2017-01-16T08:02:36.111Z,1112
2017-01-16T08:03:36.523Z,1092
2017-01-16T08:04:36.111Z,1060
2017-01-16T08:05:35.699Z,1032
2017-01-16T08:06:36.511Z,1000
2017-01-16T08:07:36.506Z,952
2017-01-16T08:08:35.683Z,912
2017-01-16T08:09:36.090Z,860
2017-01-16T08:10:35.670Z,808
2017-01-16T08:11:36.487Z,780
2017-01-16T08:12:36.070Z,768
2017-01-16T08:13:36.058Z,776
2017-01-16T08:14:36.058Z,784
2017-01-16T08:15:36.062Z,808
2017-01-16T08:16:36.054Z,844
2017-01-16T08:17:36.046Z,860
2017-01-16T08:18:35.638Z,856
2017-01-16T08:19:36.042Z,848
2017-01-16T08:20:36.449Z,840
2017-01-16T08:21:36.033Z,832
2017-01-16T08:22:35.208Z,828
2017-01-16T08:23:36.018Z,844
2017-01-16T08:24:36.434Z,868
2017-01-16T08:25:35.193Z,908
2017-01-16T08:26:35.598Z,948
2017-01-16T08:27:36.009Z,980
2017-01-16T08:28:36.002Z,1008
2017-01-16T08:29:36.414Z,1060
2017-01-16T08:30:35.578Z,1156
2017-01-16T08:31:36.402Z,1284
2017-01-16T08:32:35.986Z,1400
2017-01-16T08:33:36.394Z,1540
2017-01-16T08:34:36.390Z,1688
2017-01-16T08:35:36.394Z,1800
2017-01-16T08:36:36.382Z,1848
2017-01-16T08:37:35.978Z,1824
2017-01-16T08:38:35.542Z,1824
2017-01-16T08:39:35.954Z,1892
2017-01-16T08:40:36.354Z,1948
2017-01-16T08:41:35.538Z,1896
2017-01-16T08:42:36.358Z,1804
2017-01-16T08:43:35.930Z,1780
2017-01-16T08:44:35.938Z,1852
2017-01-16T08:45:35.518Z,1972
2017-01-16T08:46:36.338Z,2172
2017-01-16T08:47:35.914Z,2408
2017-01-16T08:48:36.334Z,2656
2017-01-16T08:49:35.910Z,2840
2017-01-16T08:50:35.910Z,3004
2017-01-16T08:51:35.906Z,3156
2017-01-16T08:52:35.490Z,3292
2017-01-16T08:53:36.310Z,3396
2017-01-16T08:54:35.894Z,3528
2017-01-16T08:55:35.887Z,3676
2017-01-16T08:56:35.891Z,3620
2017-01-16T08:57:35.890Z,3464
2017-01-16T08:58:35.883Z,3336
2017-01-16T08:59:36.287Z,3272
2017-01-16T09:00:35.879Z,3312
2017-01-16T09:01:35.875Z,3372
2017-01-16T09:02:35.855Z,3376
2017-01-16T09:03:35.855Z,3436
2017-01-16T09:04:35.851Z,3572
2017-01-16T09:05:36.264Z,3704
2017-01-16T09:06:35.848Z,3808
2017-01-16T09:07:35.848Z,3900
2017-01-16T09:08:36.252Z,4024
2017-01-16T09:09:35.836Z,4220
2017-01-16T09:10:36.244Z,4348
2017-01-16T09:11:35.824Z,4384
2017-01-16T09:12:35.416Z,4300
2017-01-16T09:13:35.820Z,4244
2017-01-16T09:14:36.228Z,4144
2017-01-16T09:15:36.224Z,4028
2017-01-16T09:16:35.820Z,3844
2017-01-16T09:17:36.221Z,3580
2017-01-16T09:18:36.216Z,3264
2017-01-16T09:19:35.385Z,3032
2017-01-16T09:20:35.381Z,2828
2017-01-16T09:21:35.797Z,2660
2017-01-16T09:22:35.793Z,2532
2017-01-16T09:23:36.193Z,2484
2017-01-16T09:24:35.785Z,2444
2017-01-16T09:25:35.365Z,2404
2017-01-16T09:26:35.365Z,2364
2017-01-16T09:27:35.773Z,2332
2017-01-16T09:28:36.178Z,2312
2017-01-16T09:29:36.178Z,2256
2017-01-16T09:30:35.754Z,2148
2017-01-16T09:31:36.170Z,2244
2017-01-16T09:32:36.170Z,2124
2017-01-16T09:33:36.166Z,2280
2017-01-16T09:34:35.750Z,2288
2017-01-16T09:35:35.743Z,2280
2017-01-16T09:36:36.151Z,2264
2017-01-16T09:37:35.331Z,2272
2017-01-16T09:38:35.735Z,2292
2017-01-16T09:39:35.731Z,2284
2017-01-16T09:40:36.139Z,2228
2017-01-16T09:42:20.599Z,2304
2017-01-16T09:42:36.143Z,2328
2017-01-16T09:43:35.716Z,2280
2017-01-16T09:44:35.719Z,2332
2017-01-16T09:45:35.716Z,2432
2017-01-16T09:46:35.708Z,2456
2017-01-16T09:47:35.304Z,2472
2017-01-16T09:48:35.723Z,2488
2017-01-16T09:49:36.108Z,2440
2017-01-16T09:50:35.697Z,2488
2017-01-16T09:51:35.700Z,2380
2017-01-16T09:52:36.104Z,2404
2017-01-16T09:53:36.109Z,2500
2017-01-16T09:54:36.096Z,2648
2017-01-16T09:55:36.093Z,2680
2017-01-16T09:56:35.677Z,2708
2017-01-16T09:57:36.089Z,2748
2017-01-16T09:58:35.677Z,2784
2017-01-16T09:59:35.269Z,2840
2017-01-16T10:00:35.254Z,2920
2017-01-16T10:01:35.917Z,3000
2017-01-16T10:02:35.246Z,3072
2017-01-16T10:03:35.250Z,3080
2017-01-16T10:04:35.662Z,3064
2017-01-16T10:05:35.654Z,3048
2017-01-16T10:06:36.071Z,3008
2017-01-16T10:07:35.638Z,2844
2017-01-16T10:08:35.651Z,2852
2017-01-16T10:09:36.051Z,2992
2017-01-16T10:10:35.630Z,3036
2017-01-16T10:11:35.631Z,3072
2017-01-16T10:12:35.223Z,3044
2017-01-16T10:13:35.227Z,3084
2017-01-16T10:14:35.631Z,3116
2017-01-16T10:15:35.627Z,3116
2017-01-16T10:16:35.623Z,3112
2017-01-16T10:17:35.208Z,3124
2017-01-16T10:18:36.028Z,3148
2017-01-16T10:19:36.020Z,3172
2017-01-16T10:20:35.604Z,3208
2017-01-16T10:21:35.607Z,3244
2017-01-16T10:22:36.012Z,3304
2017-01-16T10:23:36.000Z,3276
2017-01-16T10:24:35.592Z,3252
2017-01-16T10:25:36.004Z,3356
2017-01-16T10:26:36.008Z,3688
2017-01-16T10:27:35.589Z,3688
2017-01-16T10:28:35.584Z,3696
2017-01-16T10:29:35.577Z,3884
2017-01-16T10:30:35.169Z,4088
2017-01-16T10:31:35.984Z,4312
2017-01-16T10:32:35.161Z,4600
2017-01-16T10:33:35.989Z,4760
2017-01-16T10:34:35.576Z,5048
2017-01-16T10:35:35.157Z,5408
2017-01-16T10:36:35.965Z,5432
2017-01-16T10:37:35.145Z,5652
2017-01-16T10:38:35.553Z,5808
2017-01-16T10:39:35.550Z,5984
2017-01-16T10:40:35.553Z,6296
2017-01-16T10:41:35.554Z,6760
2017-01-16T10:42:35.541Z,7100
2017-01-16T10:43:35.946Z,6960
2017-01-16T10:44:35.942Z,7260
2017-01-16T10:45:35.534Z,7308
2017-01-16T10:46:35.534Z,7460
2017-01-16T10:47:35.118Z,7316
2017-01-16T10:48:35.541Z,7000
2017-01-16T10:49:35.526Z,6972
2017-01-16T10:50:35.526Z,6748
2017-01-16T10:51:35.526Z,6304
2017-01-16T10:52:35.930Z,6048
2017-01-16T10:53:35.103Z,6000
2017-01-16T10:54:35.926Z,5640
2017-01-16T10:55:35.515Z,5288
2017-01-16T10:56:35.515Z,5020
2017-01-16T10:57:35.503Z,4816
2017-01-16T10:58:35.544Z,4696
2017-01-16T10:59:35.091Z,4616
2017-01-16T11:00:35.507Z,4440
2017-01-16T11:01:35.935Z,4396
2017-01-16T11:02:35.499Z,4416
2017-01-16T11:03:35.911Z,4308
2017-01-16T11:04:35.487Z,4312
2017-01-16T11:05:35.907Z,4408
2017-01-16T11:06:35.087Z,4392
2017-01-16T11:07:35.074Z,4336
2017-01-16T11:08:35.479Z,4260
2017-01-16T11:09:35.074Z,4480
2017-01-16T11:10:35.487Z,4400
2017-01-16T11:11:35.475Z,4068
2017-01-16T11:12:35.478Z,3740
2017-01-16T11:13:35.470Z,3580
2017-01-16T11:14:35.883Z,3536
2017-01-16T11:15:35.883Z,3640
2017-01-16T11:16:35.459Z,3920
2017-01-16T11:17:35.458Z,4088
2017-01-16T11:18:35.455Z,4072
2017-01-16T11:19:35.455Z,3964
2017-01-16T11:20:35.855Z,3928
2017-01-16T11:21:35.451Z,4196
2017-01-16T11:22:35.046Z,4460
2017-01-16T11:23:35.850Z,4808
2017-01-16T11:24:35.447Z,5016
2017-01-16T11:25:35.910Z,4592
2017-01-16T11:26:35.439Z,4164
2017-01-16T11:27:35.442Z,4088
2017-01-16T11:28:35.443Z,4080
2017-01-16T11:29:35.846Z,4236
2017-01-16T11:30:35.018Z,4656
2017-01-16T11:31:35.431Z,5232
2017-01-16T11:32:35.430Z,5624
2017-01-16T11:33:35.426Z,5696
2017-01-16T11:34:35.827Z,5276
2017-01-16T11:35:35.831Z,5244
2017-01-16T11:36:35.830Z,5052
2017-01-16T11:37:35.823Z,4764
2017-01-16T11:38:35.414Z,4548
2017-01-16T11:39:35.826Z,4408
2017-01-16T11:40:35.414Z,4404
2017-01-16T11:41:35.418Z,4288
2017-01-16T11:42:35.821Z,3992
2017-01-16T11:43:34.990Z,4036
2017-01-16T11:44:34.990Z,3992
2017-01-16T11:45:35.398Z,3960
2017-01-16T11:46:35.546Z,3780
2017-01-16T11:47:35.398Z,3672
2017-01-16T11:48:35.394Z,3720
2017-01-16T11:49:35.797Z,3748
2017-01-16T11:50:35.798Z,3960
2017-01-16T11:51:34.982Z,4224
2017-01-16T11:52:35.793Z,4332
2017-01-16T11:53:35.794Z,4736
2017-01-16T11:54:35.373Z,5256
2017-01-16T11:55:35.790Z,5296
2017-01-16T11:56:35.368Z,5264
2017-01-16T11:57:35.369Z,5176
2017-01-16T11:58:35.785Z,5376
2017-01-16T11:59:35.777Z,5164
2017-01-16T12:00:35.363Z,4672
2017-01-16T12:01:35.361Z,4348
2017-01-16T12:02:35.773Z,4336
2017-01-16T12:03:35.769Z,4160
2017-01-16T12:04:35.769Z,4096
2017-01-16T12:05:35.353Z,4136
2017-01-16T12:06:35.768Z,4088
2017-01-16T12:07:34.953Z,4000
2017-01-16T12:08:35.349Z,3960
2017-01-16T12:09:35.344Z,3948
2017-01-16T12:10:35.353Z,3940
2017-01-16T12:11:35.333Z,3956
2017-01-16T12:12:34.916Z,4084
2017-01-16T12:13:35.332Z,3596
2017-01-16T12:14:35.324Z,3296
2017-01-16T12:15:35.735Z,3144
2017-01-16T12:16:35.325Z,2996
2017-01-16T12:17:35.320Z,2932
2017-01-16T12:18:34.911Z,2856
2017-01-16T12:19:35.731Z,2688
2017-01-16T12:20:34.911Z,2556
2017-01-16T12:21:34.487Z,2508
2017-01-16T12:22:35.319Z,2536
2017-01-16T12:23:34.902Z,2564
2017-01-16T12:24:35.311Z,2628
2017-01-16T12:25:35.308Z,2776
2017-01-16T12:26:34.890Z,2988
2017-01-16T12:27:34.890Z,3136
2017-01-16T12:28:34.886Z,3212
2017-01-16T12:29:34.882Z,3204
2017-01-16T12:30:34.886Z,3320
2017-01-16T12:31:35.298Z,3564
2017-01-16T12:32:35.294Z,3680
2017-01-16T12:33:35.701Z,3804
2017-01-16T12:34:35.701Z,3916
2017-01-16T12:35:35.698Z,3836
2017-01-16T12:36:35.697Z,3876
2017-01-16T12:37:35.281Z,3980
2017-01-16T12:38:35.281Z,4068
2017-01-16T12:39:35.685Z,4140
2017-01-16T12:40:35.277Z,4012
2017-01-16T12:41:35.265Z,3928
2017-01-16T12:42:35.264Z,3888
2017-01-16T12:43:34.861Z,3888
2017-01-16T12:44:35.675Z,3880
2017-01-16T12:45:35.264Z,3772
2017-01-16T12:46:35.666Z,3712
2017-01-16T12:47:35.669Z,3616
2017-01-16T12:48:35.256Z,3496
2017-01-16T12:49:35.688Z,3408
2017-01-16T12:50:34.428Z,3468
2017-01-16T12:51:35.904Z,3504
2017-01-16T12:52:34.819Z,3472
2017-01-16T12:53:35.252Z,3456
2017-01-16T12:54:35.236Z,3524
2017-01-16T12:55:35.236Z,3576
2017-01-16T12:56:35.640Z,3592
2017-01-16T12:57:35.651Z,3548
2017-01-16T12:58:35.636Z,3584
2017-01-16T12:59:35.231Z,3628
2017-01-16T13:00:35.231Z,3708
2017-01-16T13:01:35.628Z,3752
2017-01-16T13:02:35.632Z,3728
2017-01-16T13:03:35.223Z,3696
2017-01-16T13:04:35.628Z,3600
2017-01-16T13:05:34.804Z,3480
2017-01-16T13:06:35.208Z,3384
2017-01-16T13:07:34.800Z,3324
2017-01-16T13:08:35.192Z,3316
2017-01-16T13:09:35.616Z,3344
2017-01-16T13:10:35.196Z,3412
2017-01-16T13:11:35.605Z,3464
2017-01-16T13:12:35.197Z,3440
2017-01-16T13:13:35.193Z,3272
2017-01-16T13:14:34.778Z,3164
2017-01-16T13:15:34.781Z,3096
2017-01-16T13:16:34.777Z,3052
2017-01-16T13:17:35.590Z,2992
2017-01-16T13:18:35.181Z,2956
2017-01-16T13:19:35.190Z,2924
2017-01-16T13:20:35.177Z,2892
2017-01-16T13:21:34.766Z,2900
2017-01-16T13:22:35.178Z,2916
2017-01-16T13:23:35.170Z,2920
2017-01-16T13:24:34.763Z,2884
2017-01-16T13:25:35.590Z,2884
2017-01-16T13:26:35.167Z,2916
2017-01-16T13:27:35.571Z,2940
2017-01-16T13:28:35.163Z,2908
2017-01-16T13:29:35.159Z,2820
2017-01-16T13:30:35.568Z,2780
2017-01-16T13:31:35.563Z,2788
2017-01-16T13:32:34.744Z,2816
2017-01-16T13:33:35.152Z,2796
2017-01-16T13:34:35.556Z,2824
2017-01-16T13:35:35.136Z,2804
2017-01-16T13:36:35.132Z,2728
2017-01-16T13:37:35.136Z,2668
2017-01-16T13:38:35.545Z,2704
2017-01-16T13:39:35.141Z,2712
2017-01-16T13:40:35.129Z,2688
2017-01-16T13:41:35.137Z,2628
2017-01-16T13:42:35.126Z,2572
2017-01-16T13:43:35.130Z,2512
2017-01-16T13:44:35.126Z,2436
2017-01-16T13:45:35.530Z,2408
2017-01-16T13:46:35.114Z,2428
2017-01-16T13:47:34.706Z,2456
2017-01-16T13:48:35.118Z,2452
2017-01-16T13:49:35.526Z,2416
2017-01-16T13:50:35.526Z,2396
2017-01-16T13:51:34.691Z,2420
2017-01-16T13:52:35.521Z,2412
2017-01-16T13:53:35.535Z,2368
2017-01-16T13:54:35.511Z,2312
2017-01-16T13:55:35.103Z,2212
2017-01-16T13:56:35.514Z,2124
2017-01-16T13:57:35.087Z,2092
2017-01-16T13:58:35.496Z,2096
2017-01-16T13:59:35.096Z,2128
2017-01-16T14:00:35.096Z,2132
2017-01-16T14:01:35.087Z,2096
2017-01-16T14:02:35.492Z,2056
2017-01-16T14:03:35.076Z,1988